Time;durP1;ratioP1;P1;durP2;ratioP2;P2;SDS_P1;SDS_P2;PMS_P1;PMS_P2;Temp;Humidity;BMP_temperature;BMP_pressure;BME280_temperature;BME280_humidity;BME280_pressure;Samples;Min_cycle;Max_cycle;Signal;HPM_P1;HPM_P2
2024/03/03 05:06:12;;;;;;;0.30;0.30;;;6.00;99.90;;;;;;5564433;23;20302;-67
2024/03/03 05:08:38;;;;;;;0.30;0.30;;;6.00;99.90;;;;;;4880704;29;20190;-68
2024/03/03 05:11:03;;;;;;;0.50;0.50;;;6.10;99.90;;;;;;4864131;29;20519;-67
2024/03/03 05:13:29;;;;;;;0.40;0.40;;;6.00;99.90;;;;;;4864093;29;20570;-68
2024/03/03 05:15:54;;;;;;;0.30;0.30;;;6.00;99.90;;;;;;4880230;29;20694;-68
2024/03/03 05:18:21;;;;;;;0.40;0.40;;;6.00;99.90;;;;;;4880634;29;20239;-68
2024/03/03 05:20:46;;;;;;;0.30;0.30;;;5.90;99.90;;;;;;4880505;29;20171;-68
2024/03/03 05:23:12;;;;;;;0.30;0.30;;;5.90;99.90;;;;;;4880944;29;20171;-68
2024/03/03 05:25:38;;;;;;;0.30;0.30;;;5.90;99.90;;;;;;4880167;29;20220;-67
2024/03/03 05:28:03;;;;;;;0.93;0.93;;;5.90;99.90;;;;;;4880633;29;20610;-68
2024/03/03 05:30:29;;;;;;;0.40;0.40;;;5.80;99.90;;;;;;4880563;29;20269;-67
2024/03/03 05:32:55;;;;;;;0.40;0.40;;;5.80;99.90;;;;;;4880605;29;20190;-68
2024/03/03 05:35:20;;;;;;;0.50;0.50;;;5.80;99.90;;;;;;4862840;29;20298;-67
2024/03/03 05:37:46;;;;;;;0.50;0.50;;;5.70;99.90;;;;;;4879979;29;20261;-67
2024/03/03 05:40:11;;;;;;;0.60;0.60;;;5.70;99.90;;;;;;4878820;29;20186;-68
2024/03/03 05:42:37;;;;;;;0.40;0.40;;;5.70;99.90;;;;;;4851575;29;20180;-68
2024/03/03 05:45:03;;;;;;;0.50;0.50;;;5.70;99.90;;;;;;4861157;29;20215;-68
2024/03/03 05:47:28;;;;;;;0.30;0.30;;;5.70;99.90;;;;;;4889421;29;20221;-68
2024/03/03 05:49:54;;;;;;;0.50;0.50;;;5.60;99.90;;;;;;4898780;29;20467;-67
2024/03/03 05:52:20;;;;;;;0.38;0.38;;;5.60;99.90;;;;;;4881895;29;20185;-68
2024/03/03 05:54:46;;;;;;;0.60;0.60;;;5.60;99.90;;;;;;4898460;29;20246;-67
2024/03/03 05:57:13;;;;;;;0.40;0.40;;;5.60;99.90;;;;;;4898756;29;20194;-67
2024/03/03 05:59:39;;;;;;;0.40;0.40;;;5.50;99.90;;;;;;4880627;29;20534;-67
2024/03/03 06:02:04;;;;;;;1.13;1.13;;;5.50;99.90;;;;;;4880380;29;20182;-67
2024/03/03 06:04:30;;;;;;;0.30;0.30;;;5.50;99.90;;;;;;4879936;29;20292;-67
2024/03/03 06:06:55;;;;;;;0.30;0.30;;;5.40;99.90;;;;;;4879676;29;20199;-68
2024/03/03 06:09:21;;;;;;;0.50;0.50;;;5.40;99.90;;;;;;4880210;29;20201;-69
2024/03/03 06:11:49;;;;;;;0.30;0.30;;;5.40;99.90;;;;;;4879990;29;20172;-68
2024/03/03 06:14:14;;;;;;;0.40;0.40;;;5.40;99.90;;;;;;4863149;29;20944;-68
2024/03/03 06:16:41;;;;;;;0.40;0.40;;;5.40;99.90;;;;;;4879729;29;20253;-67
2024/03/03 06:19:07;;;;;;;0.30;0.30;;;5.40;99.90;;;;;;4879991;29;20532;-67
2024/03/03 06:21:32;;;;;;;0.40;0.40;;;5.30;99.90;;;;;;4879703;29;20315;-68
2024/03/03 06:23:58;;;;;;;0.30;0.30;;;5.30;99.90;;;;;;4880785;29;20734;-67
2024/03/03 06:26:34;;;;;;;0.50;0.50;;;5.40;99.90;;;;;;4889728;29;20225;-67
2024/03/03 06:29:00;;;;;;;0.40;0.40;;;5.40;99.90;;;;;;4879898;29;20420;-67
2024/03/03 06:31:26;;;;;;;0.50;0.50;;;5.40;99.90;;;;;;4879999;29;20188;-68
2024/03/03 06:33:52;;;;;;;0.38;0.38;;;5.50;99.90;;;;;;4862589;29;20240;-68
2024/03/03 06:36:19;;;;;;;0.40;0.40;;;5.70;99.90;;;;;;4860769;29;20261;-68
2024/03/03 06:38:44;;;;;;;0.30;0.30;;;6.00;99.90;;;;;;4861109;29;20407;-68
2024/03/03 06:41:14;;;;;;;0.40;0.40;;;6.30;99.90;;;;;;4861013;29;20183;-68
2024/03/03 06:43:44;;;;;;;0.50;0.50;;;6.50;99.90;;;;;;4861381;29;20415;-67
2024/03/03 06:46:10;;;;;;;0.30;0.30;;;6.90;99.90;;;;;;4874550;29;20239;-65
2024/03/03 06:48:36;;;;;;;0.30;0.30;;;7.30;99.90;;;;;;4879665;29;20179;-67
2024/03/03 06:51:02;;;;;;;0.40;0.40;;;7.60;99.90;;;;;;4842686;29;20605;-69
2024/03/03 06:53:28;;;;;;;0.30;0.30;;;7.90;99.90;;;;;;4871958;29;20175;-70
2024/03/03 06:55:54;;;;;;;0.40;0.40;;;8.40;99.90;;;;;;4855807;29;20441;-71
2024/03/03 06:58:19;;;;;;;0.83;0.83;;;8.80;99.90;;;;;;4876448;29;20671;-69
2024/03/03 07:00:45;;;;;;;0.60;0.60;;;9.40;99.90;;;;;;4877629;29;20258;-68
2024/03/03 07:05:36;;;;;;;0.57;0.57;;;10.60;99.90;;;;;;4869228;29;20240;-71
2024/03/03 07:08:02;;;;;;;1.23;0.60;;;11.30;99.90;;;;;;4879839;29;20202;-69
2024/03/03 07:10:30;;;;;;;0.87;0.87;;;11.60;99.90;;;;;;4874545;29;20266;-69
2024/03/03 07:12:58;;;;;;;1.03;1.03;;;11.80;99.90;;;;;;4863514;29;20421;-71
2024/03/03 07:15:24;;;;;;;0.30;0.30;;;12.10;99.90;;;;;;4857820;29;20464;-67
2024/03/03 07:17:49;;;;;;;0.30;0.30;;;12.40;99.90;;;;;;4840382;29;20427;-68
2024/03/03 07:20:15;;;;;;;0.60;0.60;;;12.80;99.90;;;;;;4878579;29;20644;-68
2024/03/03 07:22:41;;;;;;;0.80;0.80;;;13.20;99.90;;;;;;4878646;29;20390;-69
2024/03/03 07:25:07;;;;;;;0.30;0.20;;;13.60;99.90;;;;;;4868202;29;20178;-66
2024/03/03 07:27:33;;;;;;;0.40;0.40;;;14.00;99.90;;;;;;4890816;29;20199;-66
2024/03/03 07:29:59;;;;;;;0.60;0.60;;;14.40;99.90;;;;;;4882492;29;20398;-67
2024/03/03 07:32:28;;;;;;;0.60;0.60;;;14.60;99.90;;;;;;4881918;29;20176;-65
2024/03/03 07:34:55;;;;;;;0.70;0.60;;;14.80;99.90;;;;;;4881835;29;20459;-67
2024/03/03 07:37:20;;;;;;;0.30;0.30;;;14.70;98.90;;;;;;4881925;29;20489;-66
2024/03/03 07:39:46;;;;;;;0.90;0.90;;;14.80;99.30;;;;;;4879031;29;20485;-67
2024/03/03 07:42:11;;;;;;;0.80;0.60;;;15.10;98.90;;;;;;4882442;29;20182;-67
2024/03/03 07:44:37;;;;;;;0.60;0.60;;;15.40;98.30;;;;;;4881690;29;20207;-67
2024/03/03 07:47:04;;;;;;;0.87;0.87;;;15.80;97.40;;;;;;4866877;29;20199;-66
2024/03/03 07:49:29;;;;;;;0.30;0.30;;;15.90;96.20;;;;;;4866368;29;20398;-66
2024/03/03 07:51:55;;;;;;;0.60;0.60;;;15.50;96.60;;;;;;4867051;29;20678;-65
2024/03/03 07:54:20;;;;;;;0.30;0.30;;;15.70;97.10;;;;;;4867523;29;20260;-66
2024/03/03 07:56:46;;;;;;;0.40;0.40;;;15.70;96.80;;;;;;4874634;29;20744;-66
2024/03/03 07:59:12;;;;;;;0.33;0.33;;;15.60;96.30;;;;;;4873605;29;20180;-67
2024/03/03 08:01:38;;;;;;;1.00;0.40;;;15.50;97.10;;;;;;4880720;29;20647;-65
2024/03/03 08:04:06;;;;;;;0.30;0.30;;;15.60;97.20;;;;;;4881734;29;20451;-65
2024/03/03 08:06:32;;;;;;;0.80;0.80;;;15.80;97.00;;;;;;4881448;29;20410;-67
2024/03/03 08:09:03;;;;;;;0.50;0.50;;;16.00;96.40;;;;;;4880676;29;20859;-64
2024/03/03 08:11:29;;;;;;;0.40;0.40;;;16.00;96.20;;;;;;4867955;29;20188;-65
2024/03/03 08:13:55;;;;;;;1.37;1.27;;;16.00;96.20;;;;;;4861286;29;20497;-66
2024/03/03 08:16:21;;;;;;;0.30;0.30;;;15.90;96.00;;;;;;4864310;29;20572;-65
2024/03/03 08:18:47;;;;;;;0.87;0.87;;;15.90;96.30;;;;;;4872708;29;20236;-63
2024/03/03 08:21:13;;;;;;;0.50;0.50;;;16.00;96.10;;;;;;4862912;29;20388;-67
2024/03/03 08:23:39;;;;;;;0.50;0.50;;;16.10;95.90;;;;;;4862858;29;20180;-66
2024/03/03 08:26:04;;;;;;;0.40;0.40;;;16.10;95.70;;;;;;4867159;29;20410;-67
2024/03/03 08:28:34;;;;;;;0.30;0.20;;;15.90;95.80;;;;;;4880763;29;20860;-65
2024/03/03 08:31:01;;;;;;;0.40;0.40;;;15.80;95.50;;;;;;4870997;29;20207;-61
2024/03/03 08:33:26;;;;;;;1.23;0.73;;;15.50;95.90;;;;;;4871695;29;20424;-60
2024/03/03 08:35:52;;;;;;;0.40;0.40;;;15.10;96.70;;;;;;4880458;29;20491;-64
2024/03/03 08:38:18;;;;;;;0.30;0.30;;;15.00;96.20;;;;;;4880812;29;20175;-66
2024/03/03 08:40:44;;;;;;;0.40;0.40;;;14.90;96.50;;;;;;4880282;29;20273;-62
2024/03/03 08:43:10;;;;;;;0.33;0.33;;;15.00;96.70;;;;;;4880817;29;20397;-64
2024/03/03 08:45:35;;;;;;;0.30;0.30;;;15.20;96.60;;;;;;4878639;29;20703;-62
2024/03/03 08:48:01;;;;;;;0.30;0.30;;;15.30;96.00;;;;;;4880524;29;20248;-64
2024/03/03 08:50:26;;;;;;;0.30;0.30;;;15.40;96.00;;;;;;4880607;29;20611;-62
2024/03/03 08:52:52;;;;;;;0.57;0.57;;;15.50;95.60;;;;;;4881419;29;20188;-69
2024/03/03 08:55:18;;;;;;;0.30;0.30;;;15.50;95.20;;;;;;4866000;29;20220;-65
2024/03/03 08:57:43;;;;;;;0.57;0.57;;;15.60;95.70;;;;;;4862544;29;20183;-68
2024/03/03 09:00:12;;;;;;;0.30;0.20;;;15.70;95.40;;;;;;4868874;29;20597;-65
2024/03/03 09:02:38;;;;;;;0.47;0.47;;;15.80;95.00;;;;;;4863786;29;20222;-67
2024/03/03 09:05:05;;;;;;;0.30;0.30;;;15.80;95.00;;;;;;4871411;29;20474;-64
2024/03/03 09:07:31;;;;;;;0.30;0.30;;;15.60;94.80;;;;;;4861915;29;20505;-65
2024/03/03 09:09:57;;;;;;;0.30;0.30;;;15.30;95.00;;;;;;4845747;29;20827;-68
2024/03/03 09:12:22;;;;;;;0.30;0.30;;;15.20;95.40;;;;;;4879030;29;20277;-68
2024/03/03 09:14:48;;;;;;;1.13;1.03;;;15.10;95.70;;;;;;4876210;29;20228;-66
2024/03/03 09:17:14;;;;;;;0.30;0.30;;;15.00;96.00;;;;;;4872611;29;20283;-65
2024/03/03 09:19:40;;;;;;;1.23;0.87;;;14.90;96.00;;;;;;4872942;29;20219;-67
2024/03/03 09:22:06;;;;;;;0.47;0.47;;;14.80;96.40;;;;;;4880669;29;20918;-64
2024/03/03 09:24:32;;;;;;;0.40;0.30;;;14.80;96.50;;;;;;4879071;29;20450;-69
2024/03/03 09:26:57;;;;;;;0.40;0.30;;;14.80;96.20;;;;;;4876030;29;20827;-70
2024/03/03 09:29:23;;;;;;;0.40;0.40;;;15.00;96.40;;;;;;4867180;29;20606;-68
2024/03/03 09:31:49;;;;;;;0.40;0.40;;;15.10;96.50;;;;;;4878194;29;20190;-64
2024/03/03 09:34:15;;;;;;;1.13;1.13;;;15.30;96.20;;;;;;4868658;29;20630;-66
2024/03/03 09:36:44;;;;;;;0.30;0.30;;;15.70;95.90;;;;;;4867722;29;20215;-66
2024/03/03 09:39:10;;;;;;;0.30;0.30;;;16.20;95.90;;;;;;4862019;29;20406;-66
2024/03/03 09:41:36;;;;;;;0.30;0.30;;;16.70;95.30;;;;;;4866132;29;20491;-63
2024/03/03 09:44:16;;;;;;;0.30;0.30;;;17.30;94.90;;;;;;4880412;29;20268;-65
2024/03/03 09:46:43;;;;;;;0.30;0.30;;;18.10;93.40;;;;;;4850654;29;20456;-65
2024/03/03 09:49:16;;;;;;;0.80;0.47;;;18.90;92.70;;;;;;4861622;29;20410;-65
2024/03/03 09:51:44;;;;;;;1.57;0.90;;;19.70;91.70;;;;;;4860973;29;20417;-64
2024/03/03 09:54:13;;;;;;;0.53;0.53;;;20.40;90.70;;;;;;4860907;29;20436;-65
2024/03/03 09:56:43;;;;;;;0.50;0.50;;;20.80;90.00;;;;;;4868315;29;21007;-66
2024/03/03 09:59:09;;;;;;;1.03;1.03;;;21.10;87.50;;;;;;4878902;29;20746;-66
2024/03/03 10:01:39;;;;;;;0.40;0.40;;;21.40;85.10;;;;;;4878033;29;20402;-66
2024/03/03 10:04:06;;;;;;;0.30;0.30;;;21.60;85.40;;;;;;4877629;29;20404;-66
2024/03/03 10:06:36;;;;;;;0.77;0.77;;;22.00;84.20;;;;;;4877706;29;20486;-65
2024/03/03 10:09:04;;;;;;;0.83;0.83;;;22.50;81.80;;;;;;4876847;29;20486;-65
2024/03/03 10:11:32;;;;;;;0.47;0.30;;;22.40;80.10;;;;;;4876618;29;20416;-65
2024/03/03 10:13:58;;;;;;;0.33;0.33;;;22.50;81.30;;;;;;4877313;29;20412;-65
2024/03/03 10:16:25;;;;;;;0.70;0.70;;;22.70;81.20;;;;;;4877453;29;20997;-65
2024/03/03 10:19:17;;;;;;;0.40;0.30;;;23.00;79.40;;;;;;4878246;29;20754;-65
2024/03/03 10:21:43;;;;;;;0.53;0.53;;;23.00;78.20;;;;;;4858825;29;20872;-66
2024/03/03 10:24:21;;;;;;;0.57;0.50;;;22.90;78.60;;;;;;4880054;29;20423;-66
2024/03/03 10:26:48;;;;;;;0.70;0.70;;;22.50;79.90;;;;;;4879052;29;20450;-65
2024/03/03 10:29:17;;;;;;;0.30;0.30;;;22.40;81.40;;;;;;4879419;29;20514;-65
2024/03/03 10:31:43;;;;;;;0.50;0.47;;;22.60;81.20;;;;;;4862289;29;20405;-64
2024/03/03 10:34:11;;;;;;;0.50;0.50;;;22.70;80.10;;;;;;4863101;29;20456;-65
2024/03/03 10:36:37;;;;;;;0.40;0.40;;;22.70;80.70;;;;;;4878858;29;20498;-66
2024/03/03 10:39:03;;;;;;;0.30;0.20;;;22.50;79.10;;;;;;4879282;29;20393;-66
2024/03/03 10:41:28;;;;;;;0.50;0.50;;;21.70;81.20;;;;;;4878886;29;20512;-65
2024/03/03 10:43:54;;;;;;;0.30;0.30;;;21.30;83.50;;;;;;4879224;29;20606;-64
2024/03/03 10:46:20;;;;;;;0.60;0.60;;;21.20;83.30;;;;;;4878938;29;20207;-65
2024/03/03 10:48:46;;;;;;;0.70;0.70;;;21.10;83.00;;;;;;4879420;29;20524;-65
2024/03/03 10:51:19;;;;;;;0.30;0.30;;;21.00;81.70;;;;;;4879391;29;20535;-65
2024/03/03 10:53:52;;;;;;;0.30;0.20;;;21.10;81.80;;;;;;4879246;29;20424;-65
2024/03/03 10:56:19;;;;;;;2.33;0.63;;;21.30;81.20;;;;;;4878262;29;20553;-66
2024/03/03 10:58:47;;;;;;;0.40;0.37;;;21.70;80.90;;;;;;4879009;29;20484;-64
2024/03/03 11:01:16;;;;;;;0.47;0.40;;;21.80;82.10;;;;;;4879225;29;20421;-65
2024/03/03 11:03:44;;;;;;;0.30;0.30;;;21.80;85.30;;;;;;4879247;29;20905;-65
2024/03/03 11:06:12;;;;;;;0.50;0.50;;;21.60;86.80;;;;;;4878586;29;20541;-65
2024/03/03 11:08:39;;;;;;;0.33;0.33;;;21.50;85.60;;;;;;4878992;29;20719;-65
2024/03/03 11:11:08;;;;;;;0.40;0.40;;;21.20;86.00;;;;;;4862127;29;20840;-65
2024/03/03 11:13:41;;;;;;;0.73;0.67;;;21.00;86.40;;;;;;4860376;29;20403;-65
2024/03/03 11:16:07;;;;;;;0.30;0.30;;;20.70;87.30;;;;;;4860052;29;20472;-67
2024/03/03 11:18:37;;;;;;;0.40;0.40;;;20.50;88.40;;;;;;4860276;29;20414;-66
2024/03/03 11:21:11;;;;;;;0.40;0.40;;;20.40;89.50;;;;;;4860405;29;20183;-67
2024/03/03 11:24:01;;;;;;;0.40;0.40;;;20.10;90.30;;;;;;4860555;29;20526;-62
2024/03/03 11:26:49;;;;;;;0.30;0.30;;;19.90;90.60;;;;;;4860100;29;20444;-67
2024/03/03 11:29:19;;;;;;;0.40;0.40;;;19.60;91.20;;;;;;4860395;29;20479;-66
2024/03/03 11:31:46;;;;;;;0.40;0.40;;;19.10;91.20;;;;;;4860610;29;20988;-65
2024/03/03 11:34:13;;;;;;;0.30;0.30;;;18.90;91.60;;;;;;4860494;29;20425;-66
2024/03/03 11:36:40;;;;;;;0.70;0.70;;;18.70;91.70;;;;;;4859829;29;20443;-66
2024/03/03 11:39:13;;;;;;;0.30;0.30;;;18.50;92.00;;;;;;4865539;29;20424;-66
2024/03/03 11:41:40;;;;;;;0.43;0.43;;;18.40;92.30;;;;;;4879141;29;20428;-66
2024/03/03 11:44:25;;;;;;;0.50;0.50;;;18.40;92.40;;;;;;4879651;29;20904;-66
2024/03/03 11:46:52;;;;;;;0.30;0.30;;;18.40;92.60;;;;;;4881936;29;20421;-66
2024/03/03 11:49:22;;;;;;;0.30;0.30;;;18.50;92.80;;;;;;4882389;29;20824;-67
2024/03/03 11:51:48;;;;;;;0.30;0.30;;;18.60;92.70;;;;;;4882154;29;20497;-65
2024/03/03 11:54:28;;;;;;;0.47;0.33;;;18.70;92.70;;;;;;4872716;29;20410;-67
2024/03/03 11:56:59;;;;;;;0.30;0.20;;;18.80;92.20;;;;;;4863401;29;20529;-66
2024/03/03 11:59:43;;;;;;;0.40;0.40;;;18.90;92.20;;;;;;4863757;29;20436;-66
2024/03/03 12:02:14;;;;;;;0.40;0.40;;;18.90;92.40;;;;;;4863498;29;20751;-64
2024/03/03 12:04:44;;;;;;;0.30;0.30;;;19.00;92.60;;;;;;4846345;29;20425;-65
2024/03/03 12:07:16;;;;;;;0.37;0.37;;;19.00;91.70;;;;;;4863177;29;20457;-64
2024/03/03 12:09:46;;;;;;;0.40;0.40;;;18.90;91.00;;;;;;4877728;29;20511;-66
2024/03/03 12:12:12;;;;;;;0.30;0.30;;;18.90;83.60;;;;;;4881928;29;20448;-66
2024/03/03 12:14:41;;;;;;;0.50;0.40;;;19.00;80.00;;;;;;4864765;29;20398;-65
2024/03/03 12:17:08;;;;;;;0.50;0.50;;;19.00;80.20;;;;;;4881600;29;20965;-64
2024/03/03 12:19:37;;;;;;;0.30;0.30;;;19.00;79.50;;;;;;4881658;29;20390;-64
2024/03/03 12:22:03;;;;;;;0.30;0.30;;;19.10;79.90;;;;;;4881755;29;20915;-64
2024/03/03 12:24:29;;;;;;;0.30;0.30;;;19.20;78.80;;;;;;4865735;29;20404;-66
2024/03/03 12:26:55;;;;;;;0.50;0.43;;;19.10;77.90;;;;;;4862996;29;20422;-65
2024/03/03 12:29:21;;;;;;;0.30;0.30;;;19.00;78.90;;;;;;4862793;29;20438;-65
2024/03/03 12:31:46;;;;;;;0.30;0.30;;;19.00;78.00;;;;;;4862814;29;20173;-66
2024/03/03 12:34:12;;;;;;;0.30;0.30;;;19.00;78.60;;;;;;4863350;29;20473;-66
2024/03/03 12:36:38;;;;;;;0.30;0.20;;;18.90;79.90;;;;;;4880978;29;20211;-65
2024/03/03 12:39:07;;;;;;;0.30;0.30;;;18.80;79.20;;;;;;4881476;29;20176;-65
2024/03/03 12:41:34;;;;;;;0.30;0.30;;;18.80;79.50;;;;;;4881319;29;20416;-67
2024/03/03 12:44:00;;;;;;;0.30;0.20;;;18.80;80.00;;;;;;4881286;29;20387;-65
2024/03/03 12:46:26;;;;;;;0.63;0.63;;;18.70;80.00;;;;;;4880301;29;20447;-65
2024/03/03 12:48:53;;;;;;;0.30;0.30;;;18.80;76.80;;;;;;4881248;29;20440;-65
2024/03/03 12:51:19;;;;;;;0.30;0.30;;;18.80;75.80;;;;;;4881249;29;20403;-66
2024/03/03 12:53:45;;;;;;;0.30;0.30;;;18.80;76.20;;;;;;4881074;29;20398;-65
2024/03/03 12:56:19;;;;;;;0.30;0.30;;;18.80;76.10;;;;;;4880314;29;20207;-64
2024/03/03 12:58:46;;;;;;;0.30;0.30;;;18.80;76.40;;;;;;4881180;29;20429;-65
2024/03/03 13:01:15;;;;;;;0.30;0.20;;;18.90;74.90;;;;;;4880759;29;20819;-65
2024/03/03 13:03:52;;;;;;;0.30;0.30;;;18.90;74.10;;;;;;4864695;29;20397;-65
2024/03/03 13:06:19;;;;;;;0.30;0.30;;;19.00;73.90;;;;;;4880536;29;20848;-66
2024/03/03 13:08:46;;;;;;;0.30;0.30;;;19.00;72.10;;;;;;4880623;29;20515;-65
2024/03/03 13:11:12;;;;;;;0.30;0.20;;;19.00;70.40;;;;;;4863811;29;20924;-64
2024/03/03 13:13:39;;;;;;;0.30;0.30;;;19.00;73.00;;;;;;4880608;29;20876;-64
2024/03/03 13:16:08;;;;;;;0.30;0.30;;;19.00;74.80;;;;;;4862799;29;20468;-64
2024/03/03 13:18:33;;;;;;;0.30;0.30;;;19.00;74.90;;;;;;4880415;29;20421;-65
2024/03/03 13:21:15;;;;;;;0.30;0.30;;;18.90;75.00;;;;;;4881100;29;20880;-64
2024/03/03 13:23:42;;;;;;;0.30;0.30;;;18.90;75.00;;;;;;4880647;29;20180;-64
2024/03/03 13:26:10;;;;;;;0.30;0.30;;;18.80;75.40;;;;;;4880052;29;20410;-66
2024/03/03 13:28:37;;;;;;;0.30;0.30;;;18.80;77.00;;;;;;4880597;29;20412;-65
2024/03/03 13:31:04;;;;;;;0.30;0.30;;;18.80;76.70;;;;;;4865150;29;20432;-65
2024/03/03 13:33:36;;;;;;;0.30;0.20;;;18.90;73.70;;;;;;4862104;29;20828;-64
2024/03/03 13:36:09;;;;;;;0.50;0.50;;;18.90;72.20;;;;;;4861362;29;20440;-66
2024/03/03 13:38:35;;;;;;;0.30;0.30;;;19.00;71.30;;;;;;4861947;29;20391;-65
2024/03/03 13:41:02;;;;;;;0.30;0.30;;;19.00;70.30;;;;;;4862245;29;20395;-64
2024/03/03 13:43:28;;;;;;;0.37;0.37;;;19.00;69.10;;;;;;4862313;29;20525;-65
2024/03/03 13:45:54;;;;;;;0.30;0.30;;;19.00;69.90;;;;;;4867623;29;20423;-64
2024/03/03 13:48:19;;;;;;;0.60;0.50;;;19.00;68.60;;;;;;4861659;29;20413;-66
2024/03/03 13:50:46;;;;;;;0.30;0.30;;;19.00;67.90;;;;;;4861669;29;20188;-65
2024/03/03 13:53:13;;;;;;;0.30;0.30;;;19.00;68.90;;;;;;4861795;29;20187;-64
2024/03/03 13:55:39;;;;;;;0.30;0.30;;;18.90;68.00;;;;;;4860998;29;20439;-65
2024/03/03 13:58:05;;;;;;;0.30;0.30;;;18.80;68.50;;;;;;4861471;29;20486;-65
2024/03/03 14:00:31;;;;;;;0.30;0.30;;;18.80;66.80;;;;;;4861784;29;20417;-65
2024/03/03 14:02:57;;;;;;;0.30;0.30;;;18.70;67.60;;;;;;4861249;29;20428;-65
2024/03/03 14:05:25;;;;;;;0.30;0.30;;;18.60;66.60;;;;;;4860645;29;20496;-65
2024/03/03 14:07:51;;;;;;;0.30;0.20;;;18.60;65.30;;;;;;4860602;29;20540;-65
2024/03/03 14:10:17;;;;;;;0.30;0.20;;;18.50;65.00;;;;;;4861259;29;20413;-64
2024/03/03 14:12:43;;;;;;;0.30;0.30;;;18.50;64.70;;;;;;4861083;29;20733;-65
2024/03/03 14:15:09;;;;;;;0.30;0.30;;;18.50;65.30;;;;;;4875447;29;20709;-65
2024/03/03 14:17:35;;;;;;;0.30;0.30;;;18.50;65.80;;;;;;4879504;29;20316;-66
2024/03/03 14:20:01;;;;;;;0.30;0.30;;;18.40;65.30;;;;;;4862936;29;20894;-65
2024/03/03 14:22:27;;;;;;;0.30;0.20;;;18.40;65.50;;;;;;4879590;29;20511;-65
2024/03/03 14:24:53;;;;;;;0.30;0.30;;;18.40;65.10;;;;;;4879287;29;20486;-64
2024/03/03 14:27:18;;;;;;;0.30;0.30;;;18.40;64.60;;;;;;4879389;29;20204;-64
2024/03/03 14:29:45;;;;;;;0.30;0.20;;;18.40;64.30;;;;;;4865811;29;20194;-64
2024/03/03 14:32:10;;;;;;;0.30;0.20;;;18.30;64.50;;;;;;4861135;29;20551;-64
2024/03/03 14:34:36;;;;;;;0.30;0.20;;;18.30;64.00;;;;;;4860486;29;20949;-64
2024/03/03 14:37:02;;;;;;;0.30;0.30;;;18.30;63.90;;;;;;4860743;29;20216;-64
2024/03/03 14:39:27;;;;;;;0.30;0.30;;;18.30;64.30;;;;;;4860978;29;20205;-65
2024/03/03 14:41:53;;;;;;;0.43;0.43;;;18.40;64.80;;;;;;4860949;29;20423;-65
2024/03/03 14:44:19;;;;;;;0.30;0.30;;;18.40;65.00;;;;;;4873225;29;20623;-65
2024/03/03 14:46:45;;;;;;;0.30;0.30;;;18.40;64.60;;;;;;4879090;29;20192;-65
2024/03/03 14:49:11;;;;;;;0.30;0.30;;;18.40;65.60;;;;;;4869178;29;20180;-66
2024/03/03 14:51:37;;;;;;;0.30;0.27;;;18.40;65.20;;;;;;4860877;29;20407;-62
2024/03/03 14:54:03;;;;;;;0.30;0.30;;;18.50;64.90;;;;;;4860724;29;20420;-65
2024/03/03 14:56:32;;;;;;;0.30;0.30;;;18.60;64.00;;;;;;4860284;29;20286;-65
2024/03/03 14:59:00;;;;;;;0.50;0.50;;;18.70;64.40;;;;;;4860747;29;20472;-64
2024/03/03 15:01:26;;;;;;;0.30;0.30;;;18.80;62.60;;;;;;4861031;29;20431;-64
2024/03/03 15:03:52;;;;;;;0.30;0.30;;;18.80;62.40;;;;;;4860563;29;20420;-65
2024/03/03 15:06:17;;;;;;;0.30;0.30;;;18.90;62.50;;;;;;4860172;29;20192;-65
2024/03/03 15:08:45;;;;;;;0.30;0.30;;;19.00;61.60;;;;;;4860526;29;20192;-64
2024/03/03 15:11:11;;;;;;;0.30;0.20;;;19.00;62.00;;;;;;4860571;29;20259;-65
2024/03/03 15:13:37;;;;;;;0.30;0.30;;;19.00;61.20;;;;;;4860773;29;20499;-64
2024/03/03 15:16:03;;;;;;;0.30;0.30;;;19.10;61.10;;;;;;4876926;29;20211;-65
2024/03/03 15:18:29;;;;;;;0.30;0.30;;;19.10;61.00;;;;;;4880931;29;20198;-64
2024/03/03 15:20:54;;;;;;;0.30;0.20;;;19.10;60.60;;;;;;4882820;29;20919;-65
2024/03/03 15:23:20;;;;;;;0.30;0.30;;;19.10;60.30;;;;;;4882751;29;20393;-64
2024/03/03 15:25:46;;;;;;;0.30;0.30;;;19.00;60.50;;;;;;4882191;29;20686;-65
2024/03/03 15:28:12;;;;;;;0.30;0.30;;;19.00;60.80;;;;;;4882731;29;20217;-65
2024/03/03 15:30:38;;;;;;;0.30;0.30;;;19.00;60.50;;;;;;4866420;29;20203;-64
2024/03/03 15:33:04;;;;;;;0.67;0.67;;;18.90;61.10;;;;;;4864168;29;20229;-65
2024/03/03 15:35:30;;;;;;;0.30;0.30;;;19.00;61.60;;;;;;4863443;29;20515;-65
2024/03/03 15:37:56;;;;;;;0.30;0.30;;;19.00;61.80;;;;;;4863806;29;20309;-64
2024/03/03 15:40:24;;;;;;;0.30;0.30;;;19.00;61.80;;;;;;4863989;29;20531;-64
2024/03/03 15:42:51;;;;;;;0.40;0.40;;;18.90;61.60;;;;;;4863888;29;20391;-65
2024/03/03 15:45:16;;;;;;;0.30;0.30;;;18.80;61.90;;;;;;4878130;29;20878;-65
2024/03/03 15:47:42;;;;;;;0.30;0.30;;;18.70;62.00;;;;;;4882262;29;20469;-64
2024/03/03 15:50:08;;;;;;;0.30;0.27;;;18.60;62.20;;;;;;4882397;29;20220;-64
2024/03/03 15:52:34;;;;;;;0.30;0.30;;;18.50;62.10;;;;;;4882270;29;20394;-64
2024/03/03 15:55:00;;;;;;;0.40;0.40;;;18.40;62.80;;;;;;4881791;29;20431;-64
2024/03/03 15:57:26;;;;;;;0.30;0.30;;;18.30;63.00;;;;;;4882117;29;20195;-64
2024/03/03 15:59:51;;;;;;;0.30;0.30;;;18.20;63.20;;;;;;4881575;29;20458;-64
2024/03/03 16:02:17;;;;;;;0.30;0.30;;;18.20;63.70;;;;;;4882092;29;20180;-66
2024/03/03 16:04:43;;;;;;;0.30;0.30;;;18.10;63.60;;;;;;4881849;29;20602;-64
2024/03/03 16:07:08;;;;;;;0.30;0.30;;;18.00;64.10;;;;;;4865034;29;20222;-67
2024/03/03 16:09:34;;;;;;;0.47;0.47;;;17.90;64.60;;;;;;4882149;29;20252;-64
2024/03/03 16:12:00;;;;;;;0.30;0.20;;;17.80;64.80;;;;;;4881401;29;20306;-65
2024/03/03 16:14:27;;;;;;;0.30;0.30;;;17.80;65.30;;;;;;4880756;29;20410;-66
2024/03/03 16:16:53;;;;;;;0.30;0.20;;;17.70;65.60;;;;;;4881458;29;20211;-64
2024/03/03 16:19:19;;;;;;;0.30;0.30;;;17.70;65.60;;;;;;4860198;29;20410;-65
2024/03/03 16:21:45;;;;;;;0.40;0.40;;;17.60;65.70;;;;;;4881219;29;20840;-65
2024/03/03 16:24:11;;;;;;;0.30;0.30;;;17.50;66.00;;;;;;4881606;29;20397;-63
2024/03/03 16:26:38;;;;;;;0.30;0.30;;;17.50;66.40;;;;;;4873592;29;20445;-63
2024/03/03 16:29:04;;;;;;;0.30;0.30;;;17.40;67.20;;;;;;4863019;29;20839;-62
2024/03/03 16:31:29;;;;;;;0.30;0.30;;;17.40;67.40;;;;;;4862459;29;20424;-64
2024/03/03 16:33:55;;;;;;;0.30;0.27;;;17.30;67.60;;;;;;4862937;29;20188;-65
2024/03/03 16:36:21;;;;;;;0.57;0.57;;;17.20;67.70;;;;;;4862010;29;20599;-65
2024/03/03 16:38:47;;;;;;;0.30;0.30;;;17.20;68.00;;;;;;4862780;29;20177;-63
2024/03/03 16:41:13;;;;;;;0.30;0.30;;;17.10;68.10;;;;;;4861994;29;20425;-69
2024/03/03 16:43:38;;;;;;;0.37;0.37;;;17.10;68.80;;;;;;4860929;29;20211;-66
2024/03/03 16:46:04;;;;;;;0.30;0.30;;;17.00;69.10;;;;;;4860454;29;20280;-66
2024/03/03 16:48:30;;;;;;;0.30;0.30;;;17.00;69.20;;;;;;4860813;29;20259;-67
2024/03/03 16:50:56;;;;;;;0.30;0.20;;;16.90;69.50;;;;;;4860612;29;20191;-65
2024/03/03 16:53:22;;;;;;;0.30;0.30;;;16.80;70.00;;;;;;4860589;29;20511;-67
2024/03/03 16:55:49;;;;;;;0.30;0.30;;;16.70;70.40;;;;;;4875328;29;20612;-66
2024/03/03 16:58:14;;;;;;;0.30;0.30;;;16.60;70.80;;;;;;4880900;29;20429;-66
2024/03/03 17:00:40;;;;;;;0.50;0.50;;;16.40;71.20;;;;;;4880825;29;20383;-66
2024/03/03 17:03:05;;;;;;;0.30;0.30;;;16.30;71.60;;;;;;4880800;29;20236;-66
2024/03/03 17:05:31;;;;;;;0.40;0.40;;;16.20;71.90;;;;;;4880325;29;20201;-66
2024/03/03 17:07:57;;;;;;;0.40;0.40;;;16.10;72.50;;;;;;4863943;29;20197;-68
2024/03/03 17:10:23;;;;;;;0.40;0.40;;;16.00;72.80;;;;;;4866921;29;20190;-66
2024/03/03 17:12:48;;;;;;;0.30;0.30;;;15.90;73.20;;;;;;4871507;29;20341;-68
2024/03/03 17:15:15;;;;;;;0.30;0.30;;;15.80;73.70;;;;;;4879926;29;20307;-67
2024/03/03 17:17:41;;;;;;;0.30;0.30;;;15.70;74.10;;;;;;4878989;29;20246;-67
2024/03/03 17:20:08;;;;;;;0.50;0.40;;;15.70;74.50;;;;;;4878727;29;20436;-67
2024/03/03 17:22:35;;;;;;;0.30;0.30;;;15.50;74.70;;;;;;4866996;29;20792;-67
2024/03/03 17:25:01;;;;;;;0.30;0.30;;;15.40;74.80;;;;;;4881508;29;20765;-67
2024/03/03 17:27:27;;;;;;;0.50;0.50;;;15.30;75.30;;;;;;4880296;29;20626;-68
2024/03/03 17:29:52;;;;;;;0.30;0.30;;;15.20;75.90;;;;;;4880307;29;20511;-68
2024/03/03 17:32:18;;;;;;;0.30;0.30;;;15.10;76.60;;;;;;4880146;29;20255;-70
2024/03/03 17:34:44;;;;;;;0.30;0.20;;;15.00;77.60;;;;;;4860243;29;20207;-68
2024/03/03 17:37:09;;;;;;;0.43;0.43;;;14.90;77.90;;;;;;4889344;29;20682;-66
2024/03/03 17:39:35;;;;;;;0.30;0.30;;;14.80;78.60;;;;;;4879832;29;20188;-66
2024/03/03 17:42:01;;;;;;;0.93;0.83;;;14.70;79.10;;;;;;4869996;29;20180;-65
2024/03/03 17:44:27;;;;;;;0.30;0.30;;;14.70;79.60;;;;;;4866017;29;20479;-66
2024/03/03 17:46:53;;;;;;;0.30;0.20;;;14.60;80.50;;;;;;4874960;29;20531;-66
2024/03/03 17:49:18;;;;;;;0.40;0.40;;;14.60;80.50;;;;;;4861954;29;20640;-65
2024/03/03 17:51:44;;;;;;;0.40;0.40;;;14.60;80.70;;;;;;4861396;29;20620;-65
2024/03/03 17:54:09;;;;;;;1.10;0.40;;;14.60;81.10;;;;;;4861556;29;20264;-66